States of Jersey

Home Log in

METAR EGJJ 231550Z 29007KT 9999 FEW014 17/13 Q1014 NOSIG

METAR EGJB 231550Z 26010KT 9999 SCT009 17/14 Q1014

METAR EGJA 231550Z 26010KT 9999 SCT011 17/15 Q1014

METAR LFRD 231430Z AUTO 20005KT 9999 -RA FEW006 BKN033 OVC040 15/13 Q1015 TEMPO 4000 RA

METAR LFRC 231530Z AUTO 26011KT 220V280 9999 BKN026 BKN033 BKN041 18/13 Q1014 NOSIG